createdAt,value
2024-03-09T00:02:44.589Z,13.18
2024-03-09T00:05:46.991Z,13.12
2024-03-09T00:08:50.195Z,13.06
2024-03-09T00:11:52.395Z,13.03
2024-03-09T00:14:54.621Z,13.10
2024-03-09T00:17:58.841Z,13.17
2024-03-09T00:21:01.268Z,13.14
2024-03-09T00:24:05.458Z,13.08
2024-03-09T00:27:08.894Z,13.03
2024-03-09T00:30:22.262Z,13.12
2024-03-09T00:33:24.694Z,13.13
2024-03-09T00:36:28.455Z,13.16
2024-03-09T00:39:30.662Z,13.04
2024-03-09T00:42:34.177Z,13.09
2024-03-09T00:45:36.625Z,13.12
2024-03-09T00:48:38.931Z,13.10
2024-03-09T00:51:41.105Z,13.01
2024-03-09T00:54:43.744Z,12.95
2024-03-09T00:57:47.733Z,12.81
2024-03-09T01:00:50.250Z,12.93
2024-03-09T01:03:54.571Z,12.98
2024-03-09T01:07:00.033Z,12.89
2024-03-09T01:10:02.892Z,12.86
2024-03-09T01:13:06.427Z,12.94
2024-03-09T01:16:08.649Z,12.92
2024-03-09T01:19:10.853Z,12.91
2024-03-09T01:22:13.901Z,12.91
2024-03-09T01:25:16.316Z,12.93
2024-03-09T01:28:18.508Z,12.92
2024-03-09T01:31:22.017Z,12.98
2024-03-09T01:34:24.380Z,12.98
2024-03-09T01:37:26.704Z,12.99
2024-03-09T01:40:30.427Z,12.85
2024-03-09T01:43:32.664Z,12.79
2024-03-09T01:46:35.211Z,12.56
2024-03-09T01:49:40.943Z,12.73
2024-03-09T01:52:49.747Z,12.79
2024-03-09T01:55:52.578Z,12.77
2024-03-09T01:58:55.816Z,12.68
2024-03-09T02:01:59.536Z,12.70
2024-03-09T02:05:12.186Z,12.77
2024-03-09T02:08:15.035Z,12.80
2024-03-09T02:11:17.514Z,12.62
2024-03-09T02:14:19.990Z,12.83
2024-03-09T02:17:23.538Z,12.87
2024-03-09T02:20:28.858Z,12.79
2024-03-09T02:23:33.952Z,12.87
2024-03-09T02:26:39.936Z,12.81
2024-03-09T02:29:42.298Z,12.77
2024-03-09T02:32:44.709Z,12.68
2024-03-09T02:35:47.215Z,12.58
2024-03-09T02:38:49.564Z,12.75
2024-03-09T02:41:51.742Z,12.61
2024-03-09T02:44:54.002Z,12.51
2024-03-09T02:47:56.869Z,12.65
2024-03-09T02:50:59.600Z,12.59
2024-03-09T02:54:04.275Z,12.63
2024-03-09T02:57:09.151Z,12.58
2024-03-09T03:00:13.396Z,12.67
2024-03-09T03:03:53.822Z,12.70
2024-03-09T03:06:56.043Z,12.68
2024-03-09T03:10:00.066Z,12.79
2024-03-09T03:13:02.387Z,12.72
2024-03-09T03:16:04.901Z,12.73
2024-03-09T03:19:09.145Z,12.70
2024-03-09T03:22:12.224Z,12.76
2024-03-09T03:25:14.640Z,12.60
2024-03-09T03:28:17.805Z,12.52
2024-03-09T03:31:21.412Z,12.63
2024-03-09T03:34:25.948Z,12.68
2024-03-09T03:37:30.517Z,12.46
2024-03-09T03:40:33.314Z,12.56
2024-03-09T03:43:39.546Z,12.59
2024-03-09T03:46:42.562Z,12.54
2024-03-09T03:49:47.427Z,12.56
2024-03-09T03:52:50.157Z,12.62
2024-03-09T03:55:55.515Z,12.67
2024-03-09T03:58:57.963Z,12.58
2024-03-09T04:02:00.206Z,12.59
2024-03-09T04:05:03.713Z,12.66
2024-03-09T04:08:08.394Z,12.59
2024-03-09T04:11:12.694Z,12.56
2024-03-09T04:14:15.083Z,12.60
2024-03-09T04:17:18.804Z,12.54
2024-03-09T04:20:21.073Z,12.46
2024-03-09T04:23:23.547Z,12.45
2024-03-09T04:26:27.355Z,12.53
2024-03-09T04:29:30.226Z,12.41
2024-03-09T04:32:32.410Z,12.47
2024-03-09T04:35:37.262Z,12.54
2024-03-09T04:38:39.559Z,12.57
2024-03-09T04:41:41.825Z,12.58
2024-03-09T04:44:44.167Z,12.46
2024-03-09T04:47:46.866Z,12.62
2024-03-09T04:50:50.404Z,12.62
2024-03-09T04:53:52.843Z,12.64
2024-03-09T04:56:55.093Z,12.59
2024-03-09T04:59:57.265Z,12.60
2024-03-09T05:02:59.541Z,12.60
2024-03-09T05:06:01.870Z,12.55
2024-03-09T05:09:04.198Z,12.53
2024-03-09T05:12:07.138Z,12.55
2024-03-09T05:15:09.715Z,12.41
2024-03-09T05:18:12.753Z,12.49
2024-03-09T05:21:15.170Z,12.44
2024-03-09T05:24:17.410Z,12.54
2024-03-09T05:27:19.611Z,12.60
2024-03-09T05:30:24.042Z,12.58
2024-03-09T05:33:28.711Z,12.67
2024-03-09T05:36:31.963Z,12.68
2024-03-09T05:39:37.955Z,12.66
2024-03-09T05:42:45.068Z,12.73
2024-03-09T05:45:47.338Z,12.73
2024-03-09T05:48:51.358Z,12.80
2024-03-09T05:51:53.500Z,12.70
2024-03-09T05:54:55.653Z,12.65
2024-03-09T05:57:58.816Z,12.63
2024-03-09T06:01:01.893Z,12.61
2024-03-09T06:04:05.041Z,12.68
2024-03-09T06:07:07.552Z,12.67
2024-03-09T06:10:20.255Z,12.68
2024-03-09T06:13:23.321Z,12.71
2024-03-09T06:16:25.762Z,12.82
2024-03-09T06:19:28.002Z,12.86
2024-03-09T06:22:35.170Z,12.86
2024-03-09T06:25:38.037Z,12.84
2024-03-09T06:28:40.453Z,13.04
2024-03-09T06:31:44.677Z,13.03
2024-03-09T06:34:49.120Z,12.98
2024-03-09T06:38:17.320Z,13.11
2024-03-09T06:41:20.045Z,13.14
2024-03-09T06:44:23.845Z,13.13
2024-03-09T06:47:26.149Z,13.09
2024-03-09T06:50:29.559Z,13.18
2024-03-09T06:53:31.877Z,13.23
2024-03-09T06:56:34.511Z,13.15
2024-03-09T06:59:42.941Z,13.19
2024-03-09T07:02:45.243Z,13.25
2024-03-09T07:05:47.588Z,13.26
2024-03-09T07:08:51.445Z,13.30
2024-03-09T07:11:53.813Z,13.37
2024-03-09T07:14:58.557Z,13.34
2024-03-09T07:18:02.169Z,13.42
2024-03-09T07:21:06.688Z,13.46
2024-03-09T07:24:09.263Z,13.53
2024-03-09T07:27:13.323Z,13.58
2024-03-09T07:30:15.998Z,13.57
2024-03-09T07:33:18.601Z,13.52
2024-03-09T07:36:21.842Z,13.54
2024-03-09T07:39:24.744Z,13.61
2024-03-09T07:42:27.342Z,13.59
2024-03-09T07:45:31.198Z,13.50
2024-03-09T07:48:35.422Z,13.47
2024-03-09T07:51:37.606Z,13.53
2024-03-09T07:54:40.596Z,13.63
2024-03-09T07:57:43.839Z,13.65
2024-03-09T08:00:47.308Z,13.68
2024-03-09T08:03:49.763Z,13.77
2024-03-09T08:06:52.041Z,13.82
2024-03-09T08:09:54.159Z,13.81
2024-03-09T08:12:59.797Z,13.73
2024-03-09T08:16:02.451Z,13.72
2024-03-09T08:19:04.638Z,13.76
2024-03-09T08:22:07.232Z,13.69
2024-03-09T08:25:12.545Z,13.79
2024-03-09T08:28:15.897Z,13.78
2024-03-09T08:31:18.220Z,13.89
2024-03-09T08:34:20.454Z,13.85
2024-03-09T08:37:22.583Z,13.78
2024-03-09T08:40:27.233Z,13.86
2024-03-09T08:43:32.855Z,13.89
2024-03-09T08:46:35.482Z,13.97
2024-03-09T08:49:40.647Z,14.00
2024-03-09T08:52:42.994Z,13.99
2024-03-09T08:55:47.053Z,14.07
2024-03-09T08:58:49.334Z,14.05
2024-03-09T09:01:51.511Z,14.02
2024-03-09T09:04:54.199Z,14.07
2024-03-09T09:07:57.024Z,14.03
2024-03-09T09:11:00.030Z,14.07
2024-03-09T09:14:05.085Z,14.00
2024-03-09T09:17:08.209Z,14.03
2024-03-09T09:20:15.481Z,14.01
2024-03-09T09:23:18.198Z,13.99
2024-03-09T09:26:20.554Z,14.12
2024-03-09T09:29:22.750Z,14.13
2024-03-09T09:32:25.338Z,14.16
2024-03-09T09:35:28.377Z,14.20
2024-03-09T09:38:33.636Z,14.18
2024-03-09T09:41:37.021Z,14.26
2024-03-09T09:44:41.505Z,14.28
2024-03-09T09:47:44.681Z,14.21
2024-03-09T09:50:47.625Z,14.28
2024-03-09T09:53:53.370Z,14.30
2024-03-09T09:56:57.549Z,14.31
2024-03-09T10:00:00.004Z,14.33
2024-03-09T10:03:02.898Z,14.29
2024-03-09T10:06:18.759Z,14.24
2024-03-09T10:09:30.422Z,14.20
2024-03-09T10:12:32.731Z,14.26
2024-03-09T10:15:38.380Z,14.29
2024-03-09T10:18:42.899Z,14.35
2024-03-09T10:21:50.914Z,14.33
2024-03-09T10:24:54.556Z,14.38
2024-03-09T10:28:00.014Z,14.42
2024-03-09T10:31:06.543Z,14.47
2024-03-09T10:34:09.834Z,14.45
2024-03-09T10:37:19.074Z,14.49
2024-03-09T10:40:22.077Z,14.51
2024-03-09T10:43:24.801Z,14.45
2024-03-09T10:46:29.928Z,14.53
2024-03-09T10:49:33.459Z,14.45
2024-03-09T10:52:46.268Z,14.50
2024-03-09T10:55:55.151Z,14.44
2024-03-09T10:58:58.894Z,14.42
2024-03-09T11:02:03.791Z,14.45
2024-03-09T11:05:09.476Z,14.40
2024-03-09T11:08:12.209Z,14.41
2024-03-09T11:11:15.424Z,14.50
2024-03-09T11:14:18.078Z,14.54
2024-03-09T11:17:25.597Z,14.55
2024-03-09T11:20:28.447Z,14.63
2024-03-09T11:23:36.694Z,14.62
2024-03-09T11:26:52.173Z,14.56
2024-03-09T11:29:56.109Z,14.66
2024-03-09T11:32:58.528Z,14.63
2024-03-09T11:36:00.918Z,14.64
2024-03-09T11:39:03.787Z,14.64
2024-03-09T11:42:11.381Z,14.66
2024-03-09T11:45:14.806Z,14.69
2024-03-09T11:48:17.998Z,14.66
2024-03-09T11:51:24.234Z,14.59
2024-03-09T11:54:30.731Z,14.65
2024-03-09T11:57:39.481Z,14.68
2024-03-09T12:00:42.955Z,14.75
2024-03-09T12:03:45.188Z,14.59
2024-03-09T12:06:47.515Z,14.82
2024-03-09T12:09:50.441Z,14.83
2024-03-09T12:12:53.677Z,14.77
2024-03-09T12:15:58.504Z,14.81
2024-03-09T12:19:07.531Z,14.85
2024-03-09T12:22:10.872Z,14.88
2024-03-09T12:25:14.143Z,14.88
2024-03-09T12:28:19.186Z,14.90
2024-03-09T12:31:21.658Z,14.93
2024-03-09T12:34:24.100Z,14.88
2024-03-09T12:37:29.720Z,14.87
2024-03-09T12:40:32.007Z,14.96
2024-03-09T12:43:40.802Z,14.95
2024-03-09T12:46:44.926Z,14.93
2024-03-09T12:49:47.857Z,14.92
2024-03-09T12:52:56.528Z,14.85
2024-03-09T12:55:59.950Z,14.88
2024-03-09T12:59:03.249Z,14.84
2024-03-09T13:02:10.353Z,14.85
2024-03-09T13:05:16.135Z,14.84
2024-03-09T13:08:19.095Z,14.76
2024-03-09T13:11:22.105Z,14.81
2024-03-09T13:14:24.615Z,14.78
2024-03-09T13:17:27.094Z,14.78
2024-03-09T13:20:32.792Z,14.74
2024-03-09T13:23:36.244Z,14.76
2024-03-09T13:26:38.568Z,14.77
2024-03-09T13:29:40.710Z,14.80
2024-03-09T13:32:42.867Z,14.87
2024-03-09T13:35:45.594Z,14.87
2024-03-09T13:38:50.630Z,14.91
2024-03-09T13:41:53.586Z,14.92
2024-03-09T13:44:55.854Z,14.90
2024-03-09T13:48:10.057Z,14.99
2024-03-09T13:51:16.590Z,15.03
2024-03-09T13:54:19.708Z,14.99
2024-03-09T13:57:25.116Z,14.98
2024-03-09T14:00:31.884Z,15.06
2024-03-09T14:03:35.861Z,15.07
2024-03-09T14:06:55.504Z,15.03
2024-03-09T14:10:01.087Z,15.08
2024-03-09T14:13:10.256Z,15.09
2024-03-09T14:16:14.942Z,15.01
2024-03-09T14:19:18.876Z,15.10
2024-03-09T14:22:27.706Z,15.11
2024-03-09T14:25:32.476Z,15.02
2024-03-09T14:28:35.577Z,14.98
2024-03-09T14:31:37.874Z,14.89
2024-03-09T14:34:42.229Z,14.95
2024-03-09T14:37:45.065Z,14.90
2024-03-09T14:40:53.238Z,14.89
2024-03-09T14:43:55.741Z,14.80
2024-03-09T14:46:58.368Z,14.90
2024-03-09T14:50:00.737Z,14.89
2024-03-09T14:53:08.288Z,14.91
2024-03-09T14:56:10.904Z,14.84
2024-03-09T14:59:13.805Z,14.92
2024-03-09T15:02:16.060Z,14.95
2024-03-09T15:05:18.945Z,14.95
2024-03-09T15:08:22.934Z,14.90
2024-03-09T15:11:25.478Z,14.73
2024-03-09T15:14:27.776Z,14.89
2024-03-09T15:17:30.504Z,14.89
2024-03-09T15:20:33.206Z,14.92
2024-03-09T15:23:40.851Z,14.87
2024-03-09T15:26:44.718Z,14.85
2024-03-09T15:29:47.123Z,14.85
2024-03-09T15:32:52.747Z,14.79
2024-03-09T15:35:55.733Z,14.79
2024-03-09T15:38:58.346Z,14.74
2024-03-09T15:42:02.116Z,14.78
2024-03-09T15:45:05.638Z,14.73
2024-03-09T15:48:11.493Z,14.64
2024-03-09T15:51:13.869Z,14.71
2024-03-09T15:54:19.395Z,14.74
2024-03-09T15:57:22.522Z,14.58
2024-03-09T16:00:24.728Z,14.63
2024-03-09T16:03:29.296Z,14.65
2024-03-09T16:06:31.724Z,14.65
2024-03-09T16:09:35.230Z,14.65
2024-03-09T16:12:38.089Z,14.58
2024-03-09T16:15:42.408Z,14.64
2024-03-09T16:18:44.737Z,14.62
2024-03-09T16:21:46.819Z,14.61
2024-03-09T16:24:48.947Z,14.54
2024-03-09T16:27:51.837Z,14.52
2024-03-09T16:30:54.734Z,14.44
2024-03-09T16:33:56.895Z,14.46
2024-03-09T16:36:59.358Z,14.44
2024-03-09T16:40:01.654Z,14.37
2024-03-09T16:43:04.584Z,14.40
2024-03-09T16:46:10.584Z,14.34
2024-03-09T16:49:13.470Z,14.33
2024-03-09T16:52:16.812Z,13.89
2024-03-09T16:55:19.709Z,14.32
2024-03-09T16:58:23.709Z,14.34
2024-03-09T17:01:25.986Z,14.35
2024-03-09T17:04:30.576Z,14.35
2024-03-09T17:07:32.938Z,14.29
2024-03-09T17:10:38.467Z,14.35
2024-03-09T17:13:48.746Z,14.34
2024-03-09T17:16:51.605Z,14.23
2024-03-09T17:19:53.840Z,14.22
2024-03-09T17:23:03.705Z,14.26
2024-03-09T17:26:06.516Z,14.23
2024-03-09T17:29:08.936Z,14.18
2024-03-09T17:32:11.638Z,14.10
2024-03-09T17:35:15.008Z,14.16
2024-03-09T17:38:21.421Z,14.11
2024-03-09T17:41:23.743Z,14.11
2024-03-09T17:44:26.519Z,14.03
2024-03-09T17:47:28.944Z,14.08
2024-03-09T17:50:33.613Z,14.07
2024-03-09T17:53:35.832Z,14.02
2024-03-09T17:56:39.494Z,14.10
2024-03-09T17:59:44.262Z,14.08
2024-03-09T18:02:46.566Z,14.09
2024-03-09T18:08:53.810Z,14.00
2024-03-09T18:11:59.571Z,13.96
2024-03-09T18:15:10.506Z,13.90
2024-03-09T18:18:14.164Z,13.86
2024-03-09T18:21:18.925Z,13.88
2024-03-09T18:24:23.948Z,13.90
2024-03-09T18:27:26.252Z,13.93
2024-03-09T18:30:33.127Z,13.89
2024-03-09T18:33:38.141Z,13.86
2024-03-09T18:36:40.801Z,13.79
2024-03-09T18:39:43.003Z,13.82
2024-03-09T18:42:48.394Z,13.83
2024-03-09T18:45:50.652Z,13.83
2024-03-09T18:48:53.234Z,13.80
2024-03-09T18:52:50.540Z,13.78
2024-03-09T18:55:52.869Z,13.76
2024-03-09T18:58:55.709Z,13.80
2024-03-09T19:01:58.039Z,13.80
2024-03-09T19:05:00.467Z,13.73
2024-03-09T19:08:05.990Z,13.70
2024-03-09T19:11:08.748Z,13.68
2024-03-09T19:14:13.979Z,13.53
2024-03-09T19:17:19.462Z,13.57
2024-03-09T19:20:27.895Z,13.53
2024-03-09T19:23:30.469Z,13.60
2024-03-09T19:26:33.249Z,13.62
2024-03-09T19:29:37.095Z,13.64
2024-03-09T19:32:39.555Z,13.64
2024-03-09T19:35:43.533Z,13.55
2024-03-09T19:38:51.504Z,13.47
2024-03-09T19:41:54.067Z,13.61
2024-03-09T19:44:58.699Z,13.48
2024-03-09T19:48:01.707Z,13.52
2024-03-09T19:51:05.801Z,13.52
2024-03-09T19:54:08.422Z,13.44
2024-03-09T19:57:10.601Z,13.43
2024-03-09T20:00:14.546Z,13.44
2024-03-09T20:03:16.672Z,13.39
2024-03-09T20:06:19.577Z,13.45
2024-03-09T20:09:21.894Z,13.43
2024-03-09T20:12:24.520Z,13.45
2024-03-09T20:15:28.649Z,13.48
2024-03-09T20:18:33.175Z,13.36
2024-03-09T20:21:35.336Z,13.48
2024-03-09T20:24:38.728Z,13.41
2024-03-09T20:27:44.270Z,13.43
2024-03-09T20:30:47.509Z,13.32
2024-03-09T20:33:49.780Z,13.36
2024-03-09T20:36:52.874Z,12.89
2024-03-09T20:39:55.133Z,13.35
2024-03-09T20:42:57.359Z,13.24
2024-03-09T20:45:59.610Z,13.29
2024-03-09T20:49:04.670Z,13.33
2024-03-09T20:52:07.160Z,13.35
2024-03-09T20:55:11.246Z,13.34
2024-03-09T20:58:13.686Z,13.37
2024-03-09T21:01:16.200Z,13.27
2024-03-09T21:04:18.554Z,13.39
2024-03-09T21:07:20.791Z,13.34
2024-03-09T21:10:23.481Z,13.27
2024-03-09T21:13:26.896Z,13.26
2024-03-09T21:16:30.003Z,13.23
2024-03-09T21:19:32.183Z,13.23
2024-03-09T21:22:34.414Z,13.19
2024-03-09T21:25:38.871Z,13.11
2024-03-09T21:28:43.511Z,13.21
2024-03-09T21:31:46.000Z,13.15
2024-03-09T21:34:48.325Z,13.16
2024-03-09T21:37:56.914Z,13.12
2024-03-09T21:40:59.422Z,13.26
2024-03-09T21:44:01.851Z,13.17
2024-03-09T21:47:04.319Z,13.11
2024-03-09T21:50:07.143Z,13.28
2024-03-09T21:53:09.385Z,13.28
2024-03-09T21:56:12.552Z,13.23
2024-03-09T21:59:14.988Z,13.23
2024-03-09T22:02:17.754Z,13.14
2024-03-09T22:05:21.933Z,13.08
2024-03-09T22:08:25.337Z,13.10
2024-03-09T22:11:27.736Z,13.24
2024-03-09T22:14:30.045Z,13.08
2024-03-09T22:17:33.157Z,13.06
2024-03-09T22:20:35.397Z,13.03
2024-03-09T22:23:37.863Z,13.01
2024-03-09T22:26:41.158Z,13.07
2024-03-09T22:29:43.919Z,13.10
2024-03-09T22:32:46.378Z,13.15
2024-03-09T22:35:48.773Z,13.23
2024-03-09T22:38:51.247Z,13.08
2024-03-09T22:41:53.441Z,13.10
2024-03-09T22:44:56.980Z,13.05
2024-03-09T22:48:02.979Z,13.19
2024-03-09T22:51:05.889Z,13.13
2024-03-09T22:54:08.098Z,13.04
2024-03-09T22:57:10.781Z,12.99
2024-03-09T23:00:29.168Z,13.10
2024-03-09T23:03:32.875Z,12.96
2024-03-09T23:06:35.214Z,12.94
2024-03-09T23:09:38.496Z,12.94
2024-03-09T23:12:45.411Z,12.96
2024-03-09T23:15:47.721Z,13.06
2024-03-09T23:18:49.983Z,13.02
2024-03-09T23:21:53.305Z,13.06
2024-03-09T23:24:55.595Z,12.99
2024-03-09T23:27:58.178Z,13.08
2024-03-09T23:31:00.508Z,12.98
2024-03-09T23:34:02.930Z,13.07
2024-03-09T23:37:06.037Z,13.04
2024-03-09T23:40:09.799Z,12.98
2024-03-09T23:43:11.964Z,12.86
2024-03-09T23:46:14.177Z,12.87
2024-03-09T23:49:16.934Z,12.89
2024-03-09T23:52:19.165Z,12.86
2024-03-09T23:55:23.177Z,12.90
2024-03-09T23:58:27.245Z,12.78
